createdAt,value
2023-02-17T00:02:02.846Z,79.01
2023-02-17T00:04:30.324Z,79.41
2023-02-17T00:06:57.917Z,79.36
2023-02-17T00:09:25.461Z,79.19
2023-02-17T00:11:53.010Z,79.17
2023-02-17T00:14:20.514Z,79.36
2023-02-17T00:16:48.117Z,79.56
2023-02-17T00:19:25.548Z,79.39
2023-02-17T00:21:53.190Z,79.38
2023-02-17T00:24:21.018Z,79.44
2023-02-17T00:26:48.493Z,79.43
2023-02-17T00:29:16.038Z,79.59
2023-02-17T00:31:43.624Z,79.57
2023-02-17T00:34:11.340Z,79.48
2023-02-17T00:36:39.012Z,79.49
2023-02-17T00:39:06.564Z,79.72
2023-02-17T00:41:34.201Z,79.58
2023-02-17T00:44:01.845Z,79.45
2023-02-17T00:46:29.509Z,79.43
2023-02-17T00:48:57.137Z,79.47
2023-02-17T00:51:25.031Z,79.56
2023-02-17T00:53:52.514Z,80.01
2023-02-17T00:56:20.089Z,80.47
2023-02-17T00:58:47.653Z,80.82
2023-02-17T01:01:15.266Z,80.35
2023-02-17T01:03:42.842Z,80.09
2023-02-17T01:06:10.438Z,80.15
2023-02-17T01:08:38.010Z,79.84
2023-02-17T01:11:05.613Z,79.83
2023-02-17T01:13:33.312Z,79.97
2023-02-17T01:16:00.896Z,80.00
2023-02-17T01:18:28.703Z,79.92
2023-02-17T01:20:56.267Z,79.73
2023-02-17T01:23:23.758Z,79.55
2023-02-17T01:25:51.639Z,79.67
2023-02-17T01:28:19.160Z,79.90
2023-02-17T01:30:46.709Z,79.82
2023-02-17T01:33:14.301Z,79.80
2023-02-17T01:35:41.950Z,79.68
2023-02-17T01:38:09.572Z,80.04
2023-02-17T01:40:37.105Z,80.06
2023-02-17T01:43:04.603Z,80.52
2023-02-17T01:45:32.126Z,81.66
2023-02-17T01:47:59.617Z,82.03
2023-02-17T01:50:27.158Z,82.35
2023-02-17T01:52:54.803Z,82.48
2023-02-17T01:55:22.343Z,82.33
2023-02-17T01:57:49.962Z,82.47
2023-02-17T02:00:17.590Z,82.51
2023-02-17T02:02:45.169Z,82.76
2023-02-17T02:05:12.766Z,82.75
2023-02-17T02:07:40.245Z,82.52
2023-02-17T02:10:07.736Z,82.21
2023-02-17T02:12:35.285Z,82.21
2023-02-17T02:15:02.902Z,82.13
2023-02-17T02:17:30.428Z,82.09
2023-02-17T02:19:57.951Z,81.99
2023-02-17T02:22:25.601Z,81.78
2023-02-17T02:24:53.442Z,81.69
2023-02-17T02:27:20.945Z,81.82
2023-02-17T02:29:48.408Z,82.41
2023-02-17T02:32:15.893Z,83.04
2023-02-17T02:34:43.454Z,83.39
2023-02-17T02:37:11.111Z,83.53
2023-02-17T02:39:38.568Z,83.24
2023-02-17T02:42:06.186Z,83.08
2023-02-17T02:44:33.747Z,83.18
2023-02-17T02:47:01.249Z,83.53
2023-02-17T02:49:28.807Z,83.53
2023-02-17T02:51:56.426Z,83.64
2023-02-17T02:54:24.069Z,83.90
2023-02-17T02:56:51.629Z,83.87
2023-02-17T02:59:19.381Z,83.62
2023-02-17T03:01:46.872Z,83.35
2023-02-17T03:04:14.505Z,83.40
2023-02-17T03:06:42.313Z,83.35
2023-02-17T03:09:09.765Z,83.32
2023-02-17T03:11:37.300Z,83.28
2023-02-17T03:14:04.762Z,83.14
2023-02-17T03:16:32.284Z,82.88
2023-02-17T03:18:59.915Z,82.73
2023-02-17T03:21:27.420Z,82.64
2023-02-17T03:23:54.980Z,82.58
2023-02-17T03:26:22.511Z,82.37
2023-02-17T03:28:49.973Z,82.28
2023-02-17T03:31:17.565Z,82.30
2023-02-17T03:33:45.233Z,82.42
2023-02-17T03:36:12.759Z,82.38
2023-02-17T03:38:40.301Z,82.32
2023-02-17T03:41:07.858Z,82.40
2023-02-17T03:43:35.490Z,82.68
2023-02-17T03:46:03.120Z,83.36
2023-02-17T03:48:30.773Z,83.60
2023-02-17T03:50:58.289Z,83.52
2023-02-17T03:53:25.735Z,83.57
2023-02-17T03:55:53.458Z,83.70
2023-02-17T03:58:20.978Z,83.73
2023-02-17T04:00:48.433Z,83.81
2023-02-17T04:03:15.973Z,83.66
2023-02-17T04:05:43.491Z,83.41
2023-02-17T04:08:11.054Z,83.08
2023-02-17T04:10:38.597Z,82.96
2023-02-17T04:13:06.092Z,82.90
2023-02-17T04:15:33.897Z,82.80
2023-02-17T04:18:01.532Z,82.76
2023-02-17T04:20:29.054Z,82.80
2023-02-17T04:22:56.540Z,82.84
2023-02-17T04:25:24.371Z,82.81
2023-02-17T04:27:51.907Z,82.80
2023-02-17T04:30:19.407Z,82.88
2023-02-17T04:32:46.931Z,82.99
2023-02-17T04:35:14.602Z,83.00
2023-02-17T04:37:42.056Z,82.87
2023-02-17T04:40:10.579Z,82.71
2023-02-17T04:42:38.224Z,82.70
2023-02-17T04:45:05.988Z,82.92
2023-02-17T04:47:33.627Z,83.12
2023-02-17T04:50:01.153Z,82.94
2023-02-17T04:52:28.743Z,82.80
2023-02-17T04:54:56.323Z,82.90
2023-02-17T04:57:23.962Z,83.00
2023-02-17T04:59:51.694Z,82.75
2023-02-17T05:02:19.302Z,82.54
2023-02-17T05:04:47.020Z,82.50
2023-02-17T05:07:14.506Z,82.52
2023-02-17T05:09:42.246Z,82.34
2023-02-17T05:12:09.783Z,82.30
2023-02-17T05:14:37.289Z,82.21
2023-02-17T05:17:05.125Z,82.34
2023-02-17T05:19:32.582Z,82.63
2023-02-17T05:22:00.134Z,82.81
2023-02-17T05:24:27.738Z,82.81
2023-02-17T05:26:55.394Z,82.60
2023-02-17T05:29:24.322Z,82.70
2023-02-17T05:31:52.382Z,82.70
2023-02-17T05:34:19.991Z,82.74
2023-02-17T05:36:47.539Z,82.83
2023-02-17T05:39:15.123Z,82.90
2023-02-17T05:41:42.586Z,82.77
2023-02-17T05:44:10.117Z,82.90
2023-02-17T05:46:38.114Z,83.02
2023-02-17T05:49:05.651Z,82.99
2023-02-17T05:51:33.163Z,82.94
2023-02-17T05:54:00.664Z,82.94
2023-02-17T05:56:28.164Z,82.87
2023-02-17T05:58:55.816Z,82.81
2023-02-17T06:01:23.301Z,84.34
2023-02-17T06:03:50.762Z,82.71
2023-02-17T06:06:18.291Z,82.38
2023-02-17T06:08:45.845Z,82.35
2023-02-17T06:11:13.359Z,82.34
2023-02-17T06:13:41.046Z,82.21
2023-02-17T06:16:08.765Z,82.28
2023-02-17T06:18:36.704Z,82.24
2023-02-17T06:21:04.344Z,82.36
2023-02-17T06:23:32.108Z,82.47
2023-02-17T06:25:59.640Z,82.56
2023-02-17T06:28:27.170Z,82.50
2023-02-17T06:30:54.804Z,82.60
2023-02-17T06:33:22.502Z,82.69
2023-02-17T06:35:50.379Z,82.50
2023-02-17T06:38:18.014Z,82.50
2023-02-17T06:40:45.555Z,82.56
2023-02-17T06:43:13.101Z,82.61
2023-02-17T06:45:40.716Z,82.55
2023-02-17T06:48:08.216Z,82.50
2023-02-17T06:50:35.870Z,82.61
2023-02-17T06:53:03.573Z,82.53
2023-02-17T06:55:31.174Z,82.60
2023-02-17T06:57:58.626Z,82.53
2023-02-17T07:00:27.146Z,82.50
2023-02-17T07:02:54.739Z,82.53
2023-02-17T07:05:22.397Z,82.46
2023-02-17T07:07:50.245Z,82.16
2023-02-17T07:10:17.829Z,81.82
2023-02-17T07:12:45.490Z,81.81
2023-02-17T07:15:13.128Z,81.84
2023-02-17T07:17:40.805Z,82.06
2023-02-17T07:20:09.361Z,82.21
2023-02-17T07:22:36.894Z,82.28
2023-02-17T07:25:04.541Z,82.30
2023-02-17T07:27:32.311Z,82.46
2023-02-17T07:29:59.879Z,82.57
2023-02-17T07:32:27.453Z,82.60
2023-02-17T07:34:55.236Z,82.50
2023-02-17T07:37:22.819Z,82.58
2023-02-17T07:39:50.309Z,82.72
2023-02-17T07:42:17.797Z,82.74
2023-02-17T07:44:45.440Z,82.83
2023-02-17T07:47:13.059Z,82.84
2023-02-17T07:49:40.573Z,82.63
2023-02-17T07:52:08.105Z,82.60
2023-02-17T07:54:35.619Z,82.83
2023-02-17T07:57:03.103Z,82.19
2023-02-17T07:59:30.848Z,81.76
2023-02-17T08:01:58.567Z,81.78
2023-02-17T08:04:26.095Z,82.27
2023-02-17T08:06:53.735Z,82.33
2023-02-17T08:09:40.087Z,83.07
2023-02-17T08:12:26.473Z,83.43
2023-02-17T08:14:53.961Z,82.84
2023-02-17T08:17:21.449Z,82.54
2023-02-17T08:19:49.695Z,82.02
2023-02-17T08:22:17.435Z,81.46
2023-02-17T08:24:45.223Z,80.98
2023-02-17T08:27:13.517Z,80.52
2023-02-17T08:29:41.031Z,80.01
2023-02-17T08:32:08.718Z,79.63
2023-02-17T08:34:36.685Z,79.40
2023-02-17T08:37:04.250Z,79.19
2023-02-17T08:39:31.711Z,78.82
2023-02-17T08:41:59.302Z,78.67
2023-02-17T08:44:26.800Z,78.22
2023-02-17T08:46:54.342Z,78.24
2023-02-17T08:49:21.945Z,77.86
2023-02-17T08:51:49.554Z,77.47
2023-02-17T08:54:17.032Z,77.16
2023-02-17T08:56:44.809Z,76.81
2023-02-17T08:59:12.321Z,76.17
2023-02-17T09:01:40.019Z,75.62
2023-02-17T09:04:08.118Z,75.25
2023-02-17T09:06:35.736Z,75.15
2023-02-17T09:09:03.956Z,75.20
2023-02-17T09:11:31.500Z,75.41
2023-02-17T09:13:59.074Z,74.82
2023-02-17T09:16:26.766Z,74.06
2023-02-17T09:18:54.479Z,73.85
2023-02-17T09:21:22.077Z,73.85
2023-02-17T09:23:49.620Z,73.54
2023-02-17T09:26:17.393Z,73.46
2023-02-17T09:28:44.938Z,73.19
2023-02-17T09:31:12.656Z,73.01
2023-02-17T09:33:43.258Z,72.92
2023-02-17T09:36:10.837Z,73.03
2023-02-17T09:38:38.418Z,73.60
2023-02-17T09:41:05.930Z,73.14
2023-02-17T09:43:33.536Z,72.81
2023-02-17T09:46:01.168Z,72.81
2023-02-17T09:48:28.843Z,72.85
2023-02-17T09:50:56.477Z,72.98
2023-02-17T09:53:23.989Z,73.11
2023-02-17T09:55:51.464Z,73.18
2023-02-17T09:58:19.146Z,73.21
2023-02-17T10:00:46.888Z,73.37
2023-02-17T10:03:17.466Z,73.51
2023-02-17T10:05:45.721Z,73.65
2023-02-17T10:08:13.214Z,73.77
2023-02-17T10:10:41.031Z,73.96
2023-02-17T10:13:09.443Z,74.32
2023-02-17T10:15:37.190Z,74.68
2023-02-17T10:18:04.976Z,75.04
2023-02-17T10:20:34.595Z,75.36
2023-02-17T10:23:02.643Z,75.73
2023-02-17T10:25:30.319Z,76.04
2023-02-17T10:27:57.916Z,76.48
2023-02-17T10:30:25.539Z,76.85
2023-02-17T10:32:53.230Z,77.08
2023-02-17T10:35:20.720Z,77.28
2023-02-17T10:37:48.451Z,77.51
2023-02-17T10:40:16.224Z,77.73
2023-02-17T10:42:43.762Z,77.80
2023-02-17T10:45:11.261Z,77.91
2023-02-17T10:47:38.768Z,78.08
2023-02-17T10:50:06.255Z,77.82
2023-02-17T10:52:33.757Z,77.94
2023-02-17T10:55:06.596Z,77.96
2023-02-17T10:57:39.145Z,78.00
2023-02-17T11:00:07.932Z,78.03
2023-02-17T11:02:36.645Z,78.15
2023-02-17T11:05:04.211Z,78.35
2023-02-17T11:07:32.570Z,78.30
2023-02-17T11:10:00.099Z,78.23
2023-02-17T11:12:27.627Z,78.06
2023-02-17T11:14:55.215Z,77.90
2023-02-17T11:17:22.952Z,77.84
2023-02-17T11:19:50.464Z,77.69
2023-02-17T11:22:18.042Z,77.64
2023-02-17T11:24:45.562Z,77.46
2023-02-17T11:27:13.324Z,77.23
2023-02-17T11:29:41.242Z,77.23
2023-02-17T11:32:09.138Z,77.40
2023-02-17T11:34:36.802Z,77.55
2023-02-17T11:37:04.362Z,77.53
2023-02-17T11:39:32.138Z,77.66
2023-02-17T11:41:59.850Z,77.83
2023-02-17T11:44:27.372Z,78.02
2023-02-17T11:46:54.911Z,78.12
2023-02-17T11:49:22.659Z,78.34
2023-02-17T11:51:50.253Z,78.42
2023-02-17T11:54:17.965Z,78.62
2023-02-17T11:56:48.243Z,78.86
2023-02-17T11:59:15.874Z,79.16
2023-02-17T12:01:43.440Z,79.51
2023-02-17T12:04:10.903Z,79.74
2023-02-17T12:06:38.634Z,80.17
2023-02-17T12:09:08.012Z,80.34
2023-02-17T12:11:37.435Z,80.54
2023-02-17T12:14:05.859Z,80.82
2023-02-17T12:16:33.362Z,80.82
2023-02-17T12:19:01.014Z,80.95
2023-02-17T12:21:28.834Z,81.15
2023-02-17T12:23:56.472Z,81.34
2023-02-17T12:26:23.965Z,81.52
2023-02-17T12:28:51.606Z,81.73
2023-02-17T12:31:19.331Z,81.94
2023-02-17T12:33:47.941Z,82.01
2023-02-17T12:36:15.828Z,82.02
2023-02-17T12:38:43.575Z,81.91
2023-02-17T12:41:11.133Z,81.96
2023-02-17T12:43:38.678Z,81.80
2023-02-17T12:46:06.484Z,81.90
2023-02-17T12:48:34.379Z,81.81
2023-02-17T12:51:02.172Z,81.76
2023-02-17T12:53:29.793Z,81.68
2023-02-17T12:55:57.315Z,81.64
2023-02-17T12:58:26.315Z,81.58
2023-02-17T13:00:53.876Z,81.50
2023-02-17T13:03:21.511Z,81.44
2023-02-17T13:05:49.117Z,81.24
2023-02-17T13:08:16.767Z,81.10
2023-02-17T13:10:44.412Z,80.85
2023-02-17T13:13:12.164Z,80.53
2023-02-17T13:15:40.174Z,80.36
2023-02-17T13:18:07.767Z,80.27
2023-02-17T13:20:35.294Z,80.18
2023-02-17T13:23:02.853Z,80.20
2023-02-17T13:25:30.423Z,80.15
2023-02-17T13:27:58.010Z,79.94
2023-02-17T13:30:25.674Z,79.89
2023-02-17T13:32:53.319Z,80.00
2023-02-17T13:35:21.095Z,80.08
2023-02-17T13:37:48.702Z,80.17
2023-02-17T13:40:16.301Z,80.16
2023-02-17T13:42:49.813Z,80.13
2023-02-17T13:45:17.397Z,80.08
2023-02-17T13:47:44.956Z,80.12
2023-02-17T13:50:12.552Z,80.21
2023-02-17T13:52:40.174Z,80.13
2023-02-17T13:55:07.840Z,80.09
2023-02-17T13:57:35.904Z,80.00
2023-02-17T14:00:03.391Z,79.92
2023-02-17T14:02:36.398Z,79.91
2023-02-17T14:05:04.316Z,79.86
2023-02-17T14:07:31.838Z,79.86
2023-02-17T14:09:59.341Z,79.74
2023-02-17T14:12:27.488Z,79.73
2023-02-17T14:14:55.073Z,79.73
2023-02-17T14:17:22.894Z,79.74
2023-02-17T14:19:51.561Z,79.80
2023-02-17T14:22:19.109Z,79.96
2023-02-17T14:24:46.691Z,80.03
2023-02-17T14:27:14.364Z,80.05
2023-02-17T14:29:42.018Z,80.07
2023-02-17T14:32:09.551Z,80.09
2023-02-17T14:34:37.212Z,80.15
2023-02-17T14:37:05.368Z,80.15
2023-02-17T14:39:32.908Z,80.21
2023-02-17T14:42:00.596Z,80.27
2023-02-17T14:44:28.192Z,80.30
2023-02-17T14:46:55.842Z,80.45
2023-02-17T14:49:23.452Z,80.62
2023-02-17T14:51:50.922Z,80.81
2023-02-17T14:54:18.395Z,80.82
2023-02-17T14:56:45.956Z,81.01
2023-02-17T14:59:13.437Z,81.27
2023-02-17T15:01:41.172Z,81.44
2023-02-17T15:04:08.798Z,81.73
2023-02-17T15:06:36.283Z,81.93
2023-02-17T15:09:04.023Z,82.11
2023-02-17T15:11:31.630Z,82.18
2023-02-17T15:13:59.291Z,82.28
2023-02-17T15:16:26.884Z,82.43
2023-02-17T15:18:54.717Z,82.80
2023-02-17T15:21:22.228Z,82.95
2023-02-17T15:23:49.819Z,82.96
2023-02-17T15:26:17.608Z,83.09
2023-02-17T15:28:45.164Z,83.05
2023-02-17T15:31:12.768Z,82.98
2023-02-17T15:33:40.404Z,82.95
2023-02-17T15:36:11.762Z,82.84
2023-02-17T15:38:40.470Z,82.92
2023-02-17T15:41:08.296Z,83.04
2023-02-17T15:46:04.568Z,83.14
2023-02-17T15:48:34.124Z,83.09
2023-02-17T15:51:01.669Z,83.14
2023-02-17T15:53:32.500Z,83.18
2023-02-17T15:56:03.120Z,83.02
2023-02-17T15:58:30.727Z,82.89
2023-02-17T16:01:00.387Z,82.79
2023-02-17T16:03:28.305Z,82.75
2023-02-17T16:05:56.312Z,82.69
2023-02-17T16:08:23.870Z,82.56
2023-02-17T16:10:52.399Z,82.43
2023-02-17T16:13:23.037Z,82.35
2023-02-17T16:15:50.822Z,82.27
2023-02-17T16:18:18.572Z,82.14
2023-02-17T16:20:46.155Z,82.05
2023-02-17T16:23:13.723Z,81.87
2023-02-17T16:25:41.392Z,81.70
2023-02-17T16:28:08.848Z,81.77
2023-02-17T16:30:36.428Z,81.87
2023-02-17T16:33:04.238Z,81.86
2023-02-17T16:35:31.866Z,81.96
2023-02-17T16:37:59.489Z,82.12
2023-02-17T16:40:27.104Z,82.28
2023-02-17T16:42:54.636Z,82.44
2023-02-17T16:45:22.305Z,82.47
2023-02-17T16:47:49.955Z,82.55
2023-02-17T16:50:17.455Z,82.63
2023-02-17T16:52:45.029Z,82.72
2023-02-17T16:55:12.854Z,82.79
2023-02-17T16:57:40.346Z,82.82
2023-02-17T17:00:08.220Z,82.82
2023-02-17T17:02:35.802Z,82.74
2023-02-17T17:05:03.489Z,82.73
2023-02-17T17:07:30.972Z,82.81
2023-02-17T17:10:15.372Z,82.94
2023-02-17T17:12:43.948Z,83.09
2023-02-17T17:15:11.552Z,83.08
2023-02-17T17:17:39.206Z,83.18
2023-02-17T17:20:06.704Z,83.17
2023-02-17T17:22:34.250Z,83.26
2023-02-17T17:25:01.868Z,83.37
2023-02-17T17:27:29.403Z,83.43
2023-02-17T17:29:56.951Z,83.41
2023-02-17T17:32:24.530Z,83.49
2023-02-17T17:34:52.277Z,83.48
2023-02-17T17:37:19.882Z,83.84
2023-02-17T17:39:47.455Z,83.43
2023-02-17T17:42:15.771Z,83.49
2023-02-17T17:44:43.285Z,83.79
2023-02-17T17:47:13.889Z,83.95
2023-02-17T17:49:46.002Z,84.06
2023-02-17T17:52:16.429Z,84.08
2023-02-17T17:54:43.990Z,84.16
2023-02-17T17:57:11.537Z,84.26
2023-02-17T17:59:39.768Z,84.44
2023-02-17T18:02:07.427Z,84.52
2023-02-17T18:04:35.193Z,84.47
2023-02-17T18:07:03.531Z,84.55
2023-02-17T18:09:32.278Z,84.61
2023-02-17T18:12:03.080Z,84.73
2023-02-17T18:14:30.580Z,84.67
2023-02-17T18:16:58.015Z,84.77
2023-02-17T18:19:25.673Z,84.86
2023-02-17T18:21:53.162Z,84.86
2023-02-17T18:24:20.681Z,84.90
2023-02-17T18:26:48.317Z,84.89
2023-02-17T18:29:15.824Z,84.89
2023-02-17T18:31:43.356Z,84.81
2023-02-17T18:34:11.108Z,84.70
2023-02-17T18:36:38.664Z,84.63
2023-02-17T18:39:06.279Z,84.56
2023-02-17T18:41:34.133Z,84.36
2023-02-17T18:44:01.728Z,84.21
2023-02-17T18:46:29.292Z,84.25
2023-02-17T18:48:56.977Z,84.17
2023-02-17T18:51:25.980Z,84.27
2023-02-17T18:53:53.472Z,84.39
2023-02-17T18:56:21.149Z,84.45
2023-02-17T18:58:49.468Z,84.30
2023-02-17T19:01:17.422Z,84.25
2023-02-17T19:03:45.044Z,84.15
2023-02-17T19:06:12.702Z,83.97
2023-02-17T19:08:41.483Z,83.76
2023-02-17T19:11:09.044Z,83.51
2023-02-17T19:13:36.538Z,83.36
2023-02-17T19:16:04.103Z,83.18
2023-02-17T19:18:31.658Z,83.05
2023-02-17T19:20:59.462Z,82.87
2023-02-17T19:23:27.145Z,82.79
2023-02-17T19:25:54.752Z,82.95
2023-02-17T19:28:22.282Z,82.90
2023-02-17T19:30:49.947Z,82.79
2023-02-17T19:33:17.527Z,82.73
2023-02-17T19:35:45.242Z,82.71
2023-02-17T19:38:13.123Z,82.68
2023-02-17T19:40:40.717Z,82.63
2023-02-17T19:43:11.024Z,82.71
2023-02-17T19:45:38.919Z,82.73
2023-02-17T19:48:06.716Z,82.64
2023-02-17T19:50:34.438Z,82.65
2023-02-17T19:53:02.061Z,82.55
2023-02-17T19:55:29.619Z,82.42
2023-02-17T19:57:57.312Z,82.41
2023-02-17T20:00:25.071Z,82.48
2023-02-17T20:02:52.881Z,82.60
2023-02-17T20:05:20.809Z,82.60
2023-02-17T20:07:50.475Z,82.56
2023-02-17T20:10:19.795Z,82.32
2023-02-17T20:12:47.298Z,82.31
2023-02-17T20:15:14.809Z,82.34
2023-02-17T20:17:42.451Z,82.51
2023-02-17T20:20:10.811Z,82.46
2023-02-17T20:22:38.668Z,82.52
2023-02-17T20:25:07.174Z,82.55
2023-02-17T20:27:35.206Z,82.58
2023-02-17T20:30:02.970Z,82.84
2023-02-17T20:32:30.752Z,82.88
2023-02-17T20:34:58.370Z,83.11
2023-02-17T20:37:25.884Z,83.40
2023-02-17T20:39:53.651Z,83.54
2023-02-17T20:42:21.140Z,83.53
2023-02-17T20:44:50.281Z,83.75
2023-02-17T20:47:18.211Z,84.02
2023-02-17T20:49:46.556Z,84.14
2023-02-17T20:52:14.564Z,84.47
2023-02-17T20:54:42.065Z,84.57
2023-02-17T20:57:09.714Z,84.94
2023-02-17T20:59:37.294Z,85.32
2023-02-17T21:02:04.960Z,85.28
2023-02-17T21:04:32.458Z,85.51
2023-02-17T21:07:01.423Z,85.53
2023-02-17T21:09:29.159Z,85.61
2023-02-17T21:11:56.656Z,85.74
2023-02-17T21:14:24.193Z,85.74
2023-02-17T21:16:51.913Z,85.71
2023-02-17T21:19:19.687Z,85.77
2023-02-17T21:21:47.279Z,86.06
2023-02-17T21:24:15.145Z,86.04
2023-02-17T21:26:42.658Z,86.07
2023-02-17T21:29:10.139Z,86.23
2023-02-17T21:31:37.756Z,86.46
2023-02-17T21:34:05.678Z,86.46
2023-02-17T21:36:33.437Z,86.42
2023-02-17T21:39:01.030Z,86.56
2023-02-17T21:41:30.345Z,86.54
2023-02-17T21:44:17.148Z,86.72
2023-02-17T21:46:45.233Z,86.88
2023-02-17T21:49:12.746Z,87.02
2023-02-17T21:51:40.431Z,87.19
2023-02-17T21:54:08.102Z,87.15
2023-02-17T21:56:36.370Z,86.91
2023-02-17T21:59:03.881Z,86.98
2023-02-17T22:01:31.351Z,86.86
2023-02-17T22:03:58.950Z,86.80
2023-02-17T22:06:26.574Z,86.83
2023-02-17T22:08:54.095Z,86.80
2023-02-17T22:11:21.595Z,86.78
2023-02-17T22:13:49.209Z,86.93
2023-02-17T22:16:16.746Z,86.94
2023-02-17T22:18:44.396Z,86.98
2023-02-17T22:21:12.017Z,86.96
2023-02-17T22:23:39.554Z,86.70
2023-02-17T22:26:07.630Z,86.86
2023-02-17T22:28:35.488Z,86.78
2023-02-17T22:31:03.086Z,87.01
2023-02-17T22:33:30.630Z,86.96
2023-02-17T22:35:58.416Z,87.02
2023-02-17T22:38:25.896Z,87.15
2023-02-17T22:40:53.351Z,87.36
2023-02-17T22:43:21.016Z,87.48
2023-02-17T22:45:48.484Z,87.35
2023-02-17T22:48:16.068Z,87.39
2023-02-17T22:50:43.633Z,87.39
2023-02-17T22:53:11.092Z,87.53
2023-02-17T22:55:38.576Z,87.53
2023-02-17T22:58:06.128Z,87.56
2023-02-17T23:00:33.662Z,87.64
2023-02-17T23:03:01.345Z,87.45
2023-02-17T23:05:28.896Z,87.57
2023-02-17T23:07:56.378Z,87.66
2023-02-17T23:10:23.856Z,87.62
2023-02-17T23:12:51.348Z,87.63
2023-02-17T23:15:18.840Z,87.94
2023-02-17T23:17:58.922Z,88.03
2023-02-17T23:20:26.420Z,87.98
2023-02-17T23:22:53.969Z,88.12
2023-02-17T23:25:21.508Z,88.09
2023-02-17T23:27:49.183Z,88.02
2023-02-17T23:30:16.715Z,88.10
2023-02-17T23:32:44.706Z,88.33
2023-02-17T23:35:12.245Z,88.35
2023-02-17T23:37:39.752Z,88.46
2023-02-17T23:40:07.480Z,88.73
2023-02-17T23:42:35.011Z,88.66
2023-02-17T23:45:02.485Z,88.94
2023-02-17T23:47:30.042Z,88.81
2023-02-17T23:49:57.541Z,88.78
2023-02-17T23:52:25.125Z,89.06
2023-02-17T23:54:52.905Z,89.16
2023-02-17T23:57:20.405Z,89.31
2023-02-17T23:59:47.929Z,89.48
